Time;durP1;ratioP1;P1;durP2;ratioP2;P2;SDS_P1;SDS_P2;PMS_P1;PMS_P2;Temp;Humidity;BMP_temperature;BMP_pressure;BME280_temperature;BME280_humidity;BME280_pressure;Samples;Min_cycle;Max_cycle;Signal;HPM_P1;HPM_P2
2022/01/31 00:01:34;;;;;;;20.85;5.40;;;3.60;99.90;;;;;;5093440;28;20556;-53
2022/01/31 00:04:00;;;;;;;24.38;6.60;;;3.70;99.90;;;;;;5092624;28;20105;-52
2022/01/31 00:06:25;;;;;;;23.77;6.80;;;3.70;99.90;;;;;;5093135;28;20040;-54
2022/01/31 00:08:52;;;;;;;27.70;7.28;;;3.80;99.90;;;;;;5092558;28;20049;-54
2022/01/31 00:11:18;;;;;;;23.88;7.10;;;3.80;99.90;;;;;;5092994;28;20050;-56
2022/01/31 00:13:54;;;;;;;23.55;6.93;;;3.90;99.90;;;;;;5092699;28;20119;-51
2022/01/31 00:16:24;;;;;;;20.48;6.65;;;4.00;99.90;;;;;;5092954;28;20047;-52
2022/01/31 00:18:50;;;;;;;21.77;7.15;;;4.00;99.90;;;;;;5093080;28;20050;-54
2022/01/31 00:21:16;;;;;;;24.65;7.68;;;4.10;99.90;;;;;;5092607;28;20407;-55
2022/01/31 00:23:41;;;;;;;19.70;7.38;;;4.10;99.90;;;;;;5092605;28;20412;-52
2022/01/31 00:26:07;;;;;;;21.85;7.43;;;4.10;99.90;;;;;;5092498;28;20040;-56
2022/01/31 00:28:32;;;;;;;30.00;8.75;;;4.10;99.90;;;;;;5092341;28;20040;-56
2022/01/31 00:30:58;;;;;;;22.45;7.35;;;4.20;99.90;;;;;;5092896;28;20035;-53
2022/01/31 00:33:24;;;;;;;18.52;6.93;;;4.20;99.90;;;;;;5091891;28;20036;-54
2022/01/31 00:35:50;;;;;;;25.75;7.43;;;4.20;99.90;;;;;;5092405;28;20032;-54
2022/01/31 00:38:15;;;;;;;25.27;7.90;;;4.20;99.90;;;;;;5092749;28;20044;-52
2022/01/31 00:40:42;;;;;;;19.52;8.45;;;4.20;99.90;;;;;;5092327;28;20044;-56
2022/01/31 00:43:13;;;;;;;22.80;8.10;;;4.20;99.90;;;;;;5073920;28;20048;-56
2022/01/31 00:45:46;;;;;;;20.67;7.80;;;4.20;99.90;;;;;;5092858;28;20491;-54
2022/01/31 00:48:18;;;;;;;24.73;8.98;;;4.20;99.90;;;;;;5092002;28;20048;-55
2022/01/31 00:50:47;;;;;;;24.38;9.60;;;4.20;99.90;;;;;;5091287;28;20110;-58
2022/01/31 00:53:13;;;;;;;22.98;8.98;;;4.20;99.90;;;;;;5091915;28;20032;-53
2022/01/31 00:55:39;;;;;;;25.92;9.93;;;4.20;99.90;;;;;;5091776;28;20107;-55
2022/01/31 00:58:05;;;;;;;28.90;9.75;;;4.40;99.90;;;;;;5074071;28;20407;-53
2022/01/31 01:00:30;;;;;;;23.00;10.75;;;4.30;99.90;;;;;;5092143;28;20383;-56
2022/01/31 01:02:56;;;;;;;25.52;10.10;;;4.20;99.90;;;;;;5092094;28;20457;-55
2022/01/31 01:05:22;;;;;;;25.67;9.88;;;4.30;99.90;;;;;;5091349;28;20413;-53
2022/01/31 01:07:47;;;;;;;26.70;10.32;;;4.20;99.90;;;;;;5092073;28;20151;-52
2022/01/31 01:10:16;;;;;;;26.17;10.57;;;4.20;99.90;;;;;;5091242;28;20044;-54
2022/01/31 01:12:42;;;;;;;26.50;11.38;;;4.20;99.90;;;;;;5092176;28;20502;-54
2022/01/31 01:15:09;;;;;;;27.30;11.43;;;4.10;99.90;;;;;;5091680;28;20028;-55
2022/01/31 01:17:34;;;;;;;31.52;11.30;;;4.10;99.90;;;;;;5091955;28;20045;-52
2022/01/31 01:20:00;;;;;;;30.95;12.60;;;4.00;99.90;;;;;;5091566;28;20043;-54
2022/01/31 01:22:26;;;;;;;28.63;14.00;;;3.90;99.90;;;;;;5091372;28;20036;-54
2022/01/31 01:24:51;;;;;;;28.67;13.68;;;3.80;99.90;;;;;;5091346;28;20039;-52
2022/01/31 01:27:21;;;;;;;27.98;13.32;;;3.80;99.90;;;;;;5091485;28;20040;-51
2022/01/31 01:29:47;;;;;;;26.60;13.82;;;3.80;99.90;;;;;;5074075;28;20040;-54
2022/01/31 01:32:13;;;;;;;38.40;14.15;;;3.70;99.90;;;;;;5091279;28;20047;-53
2022/01/31 01:34:39;;;;;;;37.17;16.23;;;3.70;99.90;;;;;;5091135;28;20990;-54
2022/01/31 01:37:06;;;;;;;36.38;15.55;;;3.70;99.90;;;;;;5091314;28;20475;-52
2022/01/31 01:39:32;;;;;;;32.83;14.15;;;3.70;99.90;;;;;;5073154;28;20101;-55
2022/01/31 01:41:57;;;;;;;28.15;14.13;;;3.70;99.90;;;;;;5091356;28;20036;-53
2022/01/31 01:44:48;;;;;;;31.45;14.00;;;3.60;99.90;;;;;;5091395;28;20092;-52
2022/01/31 01:47:19;;;;;;;33.55;15.35;;;3.60;99.90;;;;;;5091260;28;20105;-54
2022/01/31 01:49:46;;;;;;;32.67;14.15;;;3.60;99.90;;;;;;5090766;28;20048;-54
2022/01/31 01:52:12;;;;;;;38.65;16.35;;;3.60;99.90;;;;;;5091104;28;20031;-55
2022/01/31 01:54:38;;;;;;;35.60;14.48;;;3.60;99.90;;;;;;5090987;28;20032;-54
2022/01/31 01:57:04;;;;;;;28.65;14.77;;;3.60;99.90;;;;;;5091298;28;20084;-55
2022/01/31 01:59:34;;;;;;;29.75;14.32;;;3.60;99.90;;;;;;5090628;28;20046;-55
2022/01/31 02:02:00;;;;;;;33.85;14.10;;;3.60;99.90;;;;;;5091089;28;20567;-55
2022/01/31 02:04:27;;;;;;;33.45;13.75;;;3.60;99.90;;;;;;5090528;28;20172;-51
2022/01/31 02:06:54;;;;;;;25.17;13.27;;;3.60;99.90;;;;;;5090863;28;20044;-50
2022/01/31 02:09:25;;;;;;;33.10;13.60;;;3.60;99.90;;;;;;5090898;28;20135;-53
2022/01/31 02:11:54;;;;;;;27.52;12.50;;;3.60;99.90;;;;;;5090937;28;20444;-54
2022/01/31 02:14:21;;;;;;;30.52;13.95;;;3.60;99.90;;;;;;5090809;28;20046;-53
2022/01/31 02:16:49;;;;;;;28.33;12.55;;;3.60;99.90;;;;;;5090685;28;20487;-53
2022/01/31 02:19:16;;;;;;;29.65;12.68;;;3.60;99.90;;;;;;5072780;28;20040;-52
2022/01/31 02:21:43;;;;;;;35.03;13.43;;;3.60;99.90;;;;;;5091011;28;20037;-55
2022/01/31 02:24:09;;;;;;;26.23;12.50;;;3.60;99.90;;;;;;5090692;28;20028;-54
2022/01/31 02:26:35;;;;;;;25.55;12.07;;;3.60;99.90;;;;;;5090900;28;20040;-55
2022/01/31 02:29:00;;;;;;;27.08;12.35;;;3.60;99.90;;;;;;5090690;28;20061;-52
2022/01/31 02:31:26;;;;;;;19.80;10.52;;;3.60;99.90;;;;;;5072272;28;20490;-56
2022/01/31 02:33:52;;;;;;;18.02;9.55;;;3.60;99.90;;;;;;5072278;28;20498;-55
2022/01/31 02:36:17;;;;;;;17.48;9.93;;;3.60;99.90;;;;;;5090624;28;20442;-53
2022/01/31 02:38:43;;;;;;;21.15;10.38;;;3.70;99.90;;;;;;5072728;28;20437;-51
2022/01/31 02:41:09;;;;;;;17.35;9.73;;;3.70;99.90;;;;;;5090762;28;20397;-56
2022/01/31 02:43:35;;;;;;;19.30;9.55;;;3.70;99.90;;;;;;5090411;28;20501;-54
2022/01/31 02:46:01;;;;;;;21.15;9.15;;;3.80;99.90;;;;;;5071644;28;20051;-53
2022/01/31 02:48:30;;;;;;;18.45;9.13;;;3.80;99.90;;;;;;5090299;28;20150;-54
2022/01/31 02:50:56;;;;;;;23.65;9.45;;;3.80;99.90;;;;;;5090716;28;20032;-51
2022/01/31 02:55:55;;;;;;;19.80;11.00;;;3.80;99.90;;;;;;5090394;28;20036;-56
2022/01/31 02:58:22;;;;;;;25.35;10.98;;;3.80;99.90;;;;;;5090224;28;20039;-56
2022/01/31 03:00:48;;;;;;;23.15;11.15;;;3.90;99.90;;;;;;5089969;28;20044;-55
2022/01/31 03:03:14;;;;;;;26.25;11.60;;;3.90;99.90;;;;;;5089920;28;20040;-53
2022/01/31 03:05:40;;;;;;;23.45;10.82;;;4.00;99.90;;;;;;5090076;28;20403;-51
2022/01/31 03:08:06;;;;;;;25.70;10.98;;;4.00;99.90;;;;;;5090123;28;20035;-54
2022/01/31 03:10:32;;;;;;;25.33;11.73;;;4.10;99.90;;;;;;5056854;28;20048;-52
2022/01/31 03:12:58;;;;;;;20.80;10.85;;;4.10;99.90;;;;;;5094223;28;20036;-53
2022/01/31 03:15:23;;;;;;;32.17;12.05;;;4.20;99.90;;;;;;5092325;28;20032;-53
2022/01/31 03:17:50;;;;;;;35.65;12.48;;;4.30;99.90;;;;;;5093727;28;20495;-54
2022/01/31 03:20:18;;;;;;;32.47;11.63;;;4.30;99.90;;;;;;5093809;28;20482;-52
2022/01/31 03:22:44;;;;;;;29.45;11.38;;;4.40;99.90;;;;;;5093700;28;20501;-57
2022/01/31 03:25:10;;;;;;;27.17;10.15;;;4.40;99.90;;;;;;5093970;28;20044;-52
2022/01/31 03:27:37;;;;;;;26.38;8.18;;;4.50;99.90;;;;;;5093522;28;20051;-51
2022/01/31 03:30:05;;;;;;;17.17;4.43;;;4.60;99.90;;;;;;5093223;28;20055;-53
2022/01/31 03:32:31;;;;;;;17.73;3.80;;;4.70;99.90;;;;;;5092951;28;20158;-54
2022/01/31 03:34:57;;;;;;;22.02;3.35;;;4.80;99.90;;;;;;5093070;28;20076;-55
2022/01/31 03:37:22;;;;;;;21.75;4.13;;;4.90;99.90;;;;;;5093838;28;20814;-57
2022/01/31 03:39:48;;;;;;;18.27;3.58;;;5.00;99.90;;;;;;5092198;28;20568;-55
2022/01/31 03:42:18;;;;;;;22.73;4.03;;;5.00;99.90;;;;;;5093327;28;20039;-56
2022/01/31 03:44:46;;;;;;;19.30;3.83;;;5.10;99.90;;;;;;5093520;28;20483;-53
2022/01/31 03:47:11;;;;;;;18.33;3.92;;;5.10;99.90;;;;;;5093485;28;20044;-54
2022/01/31 03:49:37;;;;;;;24.63;4.75;;;5.20;99.90;;;;;;5074750;28;20585;-54
2022/01/31 03:52:03;;;;;;;26.50;4.45;;;5.20;99.90;;;;;;5093487;28;20459;-53
2022/01/31 03:54:29;;;;;;;25.83;4.20;;;5.30;99.90;;;;;;5092941;28;20032;-55
2022/01/31 03:56:54;;;;;;;24.67;4.20;;;5.30;99.90;;;;;;5074525;28;20046;-53
2022/01/31 03:59:20;;;;;;;24.77;4.45;;;5.40;99.90;;;;;;5092962;28;20048;-50
2022/01/31 04:01:46;;;;;;;27.25;3.90;;;5.40;99.90;;;;;;5093003;28;20038;-55
2022/01/31 04:04:13;;;;;;;17.40;3.05;;;5.40;99.90;;;;;;5092599;28;20040;-54
2022/01/31 04:06:40;;;;;;;19.88;3.72;;;5.50;99.90;;;;;;5092903;28;20505;-56
2022/01/31 04:09:07;;;;;;;25.90;3.60;;;5.50;99.90;;;;;;5093045;28;20495;-53
2022/01/31 04:11:33;;;;;;;22.20;3.80;;;5.50;99.90;;;;;;5092514;28;20048;-54
2022/01/31 04:13:59;;;;;;;28.45;3.83;;;5.50;99.90;;;;;;5093384;28;20096;-53
2022/01/31 04:16:24;;;;;;;24.42;3.40;;;5.50;99.90;;;;;;5093136;28;20039;-54
2022/01/31 04:18:50;;;;;;;24.15;3.38;;;5.50;99.90;;;;;;5093033;28;20059;-55
2022/01/31 04:21:16;;;;;;;20.02;3.42;;;5.50;99.90;;;;;;5092126;28;20093;-56
2022/01/31 04:23:42;;;;;;;24.83;3.40;;;5.50;99.90;;;;;;5092415;28;20513;-53
2022/01/31 04:26:12;;;;;;;19.58;2.60;;;5.50;99.90;;;;;;5092669;28;20044;-54
2022/01/31 04:28:43;;;;;;;17.35;2.65;;;5.50;99.90;;;;;;5091919;28;20132;-53
2022/01/31 04:33:41;;;;;;;9.82;1.60;;;5.40;99.90;;;;;;5092055;28;20044;-54
2022/01/31 04:36:07;;;;;;;12.52;1.90;;;5.30;99.90;;;;;;5092579;28;20036;-52
2022/01/31 04:38:33;;;;;;;10.52;1.40;;;5.20;99.90;;;;;;5092398;28;20907;-54
2022/01/31 04:40:59;;;;;;;13.20;2.60;;;5.10;99.90;;;;;;5092148;28;20032;-54
2022/01/31 04:43:25;;;;;;;15.50;2.70;;;5.10;99.90;;;;;;5074299;28;20093;-56
2022/01/31 04:45:52;;;;;;;21.23;2.83;;;5.00;99.90;;;;;;5092070;28;20040;-57
2022/01/31 04:48:19;;;;;;;20.10;3.38;;;5.10;99.90;;;;;;5092139;28;20043;-55
2022/01/31 04:50:45;;;;;;;17.90;3.15;;;5.00;99.90;;;;;;5091820;28;20047;-55
2022/01/31 04:53:12;;;;;;;18.60;3.13;;;5.00;99.90;;;;;;5074119;28;20038;-53
2022/01/31 04:55:38;;;;;;;19.42;2.92;;;5.00;99.90;;;;;;5091801;28;20471;-53
2022/01/31 04:58:05;;;;;;;24.65;3.45;;;5.00;99.90;;;;;;5092300;28;20043;-53
2022/01/31 05:00:31;;;;;;;23.77;3.63;;;5.00;99.90;;;;;;5091664;28;20123;-54
2022/01/31 05:02:57;;;;;;;17.13;3.85;;;5.10;99.90;;;;;;5092061;28;20131;-52
2022/01/31 05:05:22;;;;;;;19.33;2.88;;;5.10;99.90;;;;;;5091225;28;20032;-53
2022/01/31 05:07:51;;;;;;;25.08;3.08;;;5.10;99.90;;;;;;5091783;28;20534;-52
2022/01/31 05:10:17;;;;;;;18.73;2.75;;;5.10;99.90;;;;;;5091359;28;20070;-53
2022/01/31 05:12:42;;;;;;;23.17;3.90;;;5.10;99.90;;;;;;5073530;28;20128;-55
2022/01/31 05:15:09;;;;;;;24.40;3.33;;;5.20;99.90;;;;;;5091585;28;20052;-52
2022/01/31 05:17:34;;;;;;;10.85;1.55;;;5.20;99.90;;;;;;5071972;28;20048;-52
2022/01/31 05:20:00;;;;;;;7.15;1.27;;;5.00;99.90;;;;;;5091417;28;20036;-55
2022/01/31 05:22:26;;;;;;;10.00;1.23;;;4.70;99.90;;;;;;5091314;28;20036;-55
2022/01/31 05:24:52;;;;;;;8.63;1.63;;;4.60;99.90;;;;;;5091412;28;20372;-55
2022/01/31 05:27:18;;;;;;;13.15;1.42;;;4.50;99.90;;;;;;5091670;28;20088;-55
2022/01/31 05:29:43;;;;;;;11.23;1.42;;;4.40;99.90;;;;;;5091421;28;20126;-53
2022/01/31 05:32:09;;;;;;;14.48;2.10;;;4.30;99.90;;;;;;5091365;28;20214;-54
2022/01/31 05:34:35;;;;;;;15.13;2.03;;;4.20;99.90;;;;;;5090292;28;20032;-52
2022/01/31 05:37:00;;;;;;;11.40;1.70;;;4.20;99.90;;;;;;5091104;28;20115;-52
2022/01/31 05:39:26;;;;;;;14.50;1.98;;;4.20;99.90;;;;;;5091686;28;20028;-55
2022/01/31 05:41:53;;;;;;;15.63;1.95;;;4.20;99.90;;;;;;5072927;28;20040;-56
2022/01/31 05:44:20;;;;;;;12.07;1.83;;;4.20;99.90;;;;;;5091358;28;20040;-52
2022/01/31 05:46:46;;;;;;;14.30;1.92;;;4.20;99.90;;;;;;5091221;28;20161;-55
2022/01/31 05:49:12;;;;;;;16.67;1.90;;;4.30;99.90;;;;;;5091300;28;20484;-54
2022/01/31 05:51:48;;;;;;;18.27;2.47;;;4.30;99.90;;;;;;5090760;28;20485;-54
2022/01/31 05:54:14;;;;;;;18.13;2.33;;;4.30;99.90;;;;;;5091313;28;20036;-54
2022/01/31 05:56:39;;;;;;;15.15;1.95;;;4.40;99.90;;;;;;5091316;28;20028;-53
2022/01/31 05:59:05;;;;;;;20.27;3.63;;;4.40;99.90;;;;;;5090757;28;20042;-55
2022/01/31 06:01:31;;;;;;;23.98;2.80;;;4.50;99.90;;;;;;5090979;28;20471;-53
2022/01/31 06:03:56;;;;;;;23.23;2.78;;;4.50;99.90;;;;;;5090608;28;20476;-56
2022/01/31 06:06:22;;;;;;;24.27;3.25;;;4.50;99.90;;;;;;5072110;28;20044;-56
2022/01/31 06:08:48;;;;;;;29.20;2.80;;;4.60;99.90;;;;;;5072415;28;20044;-55
2022/01/31 06:11:13;;;;;;;31.00;3.38;;;4.60;99.90;;;;;;5090433;28;20109;-53
2022/01/31 06:13:42;;;;;;;25.75;3.45;;;4.60;99.90;;;;;;5090853;28;20032;-57
2022/01/31 06:16:07;;;;;;;23.33;2.70;;;4.60;99.90;;;;;;5090660;28;20113;-56
2022/01/31 06:18:36;;;;;;;22.27;2.60;;;4.60;99.90;;;;;;5091142;28;20044;-56
2022/01/31 06:21:02;;;;;;;19.27;2.95;;;4.70;99.90;;;;;;5091078;28;20074;-52
2022/01/31 06:23:29;;;;;;;20.77;2.83;;;4.70;99.90;;;;;;5089941;28;20115;-56
2022/01/31 06:25:55;;;;;;;18.13;2.88;;;4.80;99.90;;;;;;5090964;28;20067;-54
2022/01/31 06:28:21;;;;;;;16.20;2.20;;;4.80;99.90;;;;;;5072435;28;20044;-57
2022/01/31 06:30:47;;;;;;;14.65;2.08;;;4.90;99.90;;;;;;5090772;28;20044;-52
2022/01/31 06:33:16;;;;;;;10.30;1.45;;;4.90;99.90;;;;;;5090601;28;20036;-55
2022/01/31 06:35:43;;;;;;;13.45;1.77;;;4.90;99.90;;;;;;5090146;28;20028;-53
2022/01/31 06:38:09;;;;;;;10.77;1.55;;;4.90;99.90;;;;;;5090699;28;20127;-51
2022/01/31 06:40:35;;;;;;;18.20;1.70;;;4.80;99.90;;;;;;5072455;28;20032;-52
2022/01/31 06:43:00;;;;;;;14.57;2.00;;;4.70;99.90;;;;;;5090481;28;20032;-57
2022/01/31 06:45:26;;;;;;;16.15;2.70;;;4.70;99.90;;;;;;5074005;28;20153;-56
2022/01/31 06:47:52;;;;;;;15.43;1.75;;;4.60;99.90;;;;;;5094271;28;20043;-53
2022/01/31 06:50:18;;;;;;;16.73;2.28;;;4.60;99.90;;;;;;5094287;28;20045;-55
2022/01/31 06:52:43;;;;;;;13.85;1.75;;;4.60;99.90;;;;;;5075990;28;20036;-55
2022/01/31 06:55:18;;;;;;;22.13;2.75;;;4.60;99.90;;;;;;5094381;28;20089;-56
2022/01/31 06:57:44;;;;;;;20.58;2.67;;;4.60;99.90;;;;;;5094206;28;20046;-56
2022/01/31 07:00:12;;;;;;;19.98;2.33;;;4.70;99.90;;;;;;5094391;28;20032;-54
2022/01/31 07:02:38;;;;;;;23.83;3.17;;;4.60;99.90;;;;;;5094346;28;20040;-56
2022/01/31 07:05:04;;;;;;;21.88;2.25;;;4.60;99.90;;;;;;5075425;28;20036;-55
2022/01/31 07:07:30;;;;;;;15.85;2.00;;;4.70;99.90;;;;;;5094187;28;20089;-55
2022/01/31 07:09:56;;;;;;;18.70;1.92;;;4.60;99.90;;;;;;5093965;28;20063;-52
2022/01/31 07:12:29;;;;;;;17.67;2.33;;;4.70;99.90;;;;;;5093562;28;20127;-55
2022/01/31 07:14:54;;;;;;;20.52;2.67;;;4.60;99.90;;;;;;5094247;28;20123;-54
2022/01/31 07:17:20;;;;;;;22.80;2.45;;;4.70;99.90;;;;;;5093883;28;20122;-54
2022/01/31 07:19:46;;;;;;;20.85;2.55;;;4.60;99.90;;;;;;5094087;28;20097;-57
2022/01/31 07:22:14;;;;;;;25.70;3.03;;;4.70;99.90;;;;;;5093870;28;20036;-55
2022/01/31 07:24:46;;;;;;;22.85;3.05;;;4.70;99.90;;;;;;5094127;28;20071;-53
2022/01/31 07:27:12;;;;;;;21.75;2.85;;;4.70;99.90;;;;;;5093792;28;20461;-54
2022/01/31 07:29:38;;;;;;;14.68;2.67;;;4.70;99.90;;;;;;5093557;28;20097;-55
2022/01/31 07:32:07;;;;;;;17.35;3.13;;;4.70;99.90;;;;;;5093655;28;20083;-57
2022/01/31 07:34:33;;;;;;;17.77;3.13;;;4.70;99.90;;;;;;5093515;28;20036;-55
2022/01/31 07:36:59;;;;;;;23.13;2.92;;;4.70;99.90;;;;;;5093859;28;20035;-55
2022/01/31 07:39:24;;;;;;;16.10;2.45;;;4.70;99.90;;;;;;5093736;28;20517;-57
2022/01/31 07:41:50;;;;;;;17.30;2.60;;;4.80;99.90;;;;;;5075486;28;20422;-56
2022/01/31 07:44:16;;;;;;;16.38;2.75;;;4.80;99.90;;;;;;5093199;28;20047;-55
2022/01/31 07:46:42;;;;;;;16.38;2.33;;;4.90;99.90;;;;;;5075320;28;20042;-57
2022/01/31 07:49:08;;;;;;;18.35;1.92;;;4.80;99.90;;;;;;5080597;28;20196;-56
2022/01/31 07:51:38;;;;;;;16.45;2.55;;;4.90;99.90;;;;;;5084324;28;20028;-56
2022/01/31 07:54:04;;;;;;;17.35;3.47;;;4.80;99.90;;;;;;5089011;28;20024;-53
2022/01/31 07:56:29;;;;;;;11.88;1.88;;;4.80;99.90;;;;;;5090242;28;20479;-56
2022/01/31 07:58:58;;;;;;;15.48;2.03;;;4.90;99.90;;;;;;5081808;28;20104;-56
2022/01/31 08:01:26;;;;;;;17.85;2.13;;;4.80;99.90;;;;;;5081150;28;20039;-56
2022/01/31 08:03:53;;;;;;;13.27;2.10;;;4.90;99.90;;;;;;5081755;28;20051;-53
2022/01/31 08:06:18;;;;;;;11.15;1.67;;;4.90;99.90;;;;;;5084235;28;20042;-58
2022/01/31 08:08:44;;;;;;;13.88;1.55;;;4.80;99.90;;;;;;5077512;28;20826;-52
2022/01/31 08:11:10;;;;;;;8.90;1.60;;;4.90;99.90;;;;;;5082416;28;21279;-55
2022/01/31 08:13:36;;;;;;;14.70;2.08;;;5.00;99.90;;;;;;5082524;28;20063;-56
2022/01/31 08:16:09;;;;;;;22.90;2.90;;;5.00;99.90;;;;;;5082162;28;20514;-54
2022/01/31 08:18:38;;;;;;;22.42;3.42;;;5.00;99.90;;;;;;5082296;28;20059;-53
2022/01/31 08:21:05;;;;;;;31.80;4.38;;;5.00;99.90;;;;;;5083139;28;20486;-54
2022/01/31 08:23:31;;;;;;;26.38;4.10;;;5.10;99.90;;;;;;5081522;28;20543;-55
2022/01/31 08:26:00;;;;;;;30.92;4.30;;;5.10;99.90;;;;;;5082149;28;20071;-56
2022/01/31 08:28:34;;;;;;;33.33;4.47;;;5.20;99.90;;;;;;5083065;28;20123;-54
2022/01/31 08:31:23;;;;;;;51.70;6.22;;;5.30;99.90;;;;;;5082395;28;20360;-56
2022/01/31 08:36:23;;;;;;;36.42;4.88;;;5.30;99.90;;;;;;5083140;28;20484;-54
2022/01/31 08:38:50;;;;;;;33.13;4.82;;;5.30;99.90;;;;;;5080479;28;20043;-54
2022/01/31 08:41:16;;;;;;;39.72;5.57;;;5.40;99.90;;;;;;5081186;28;20036;-56
2022/01/31 08:43:43;;;;;;;26.63;3.90;;;5.40;99.90;;;;;;5081091;28;20508;-55
2022/01/31 08:46:12;;;;;;;31.15;4.20;;;5.40;99.90;;;;;;5082306;28;20035;-53
2022/01/31 08:48:39;;;;;;;31.45;4.50;;;5.40;99.90;;;;;;5081453;28;20119;-56
2022/01/31 08:51:07;;;;;;;31.38;4.28;;;5.40;99.90;;;;;;5078657;28;20067;-57
2022/01/31 08:53:33;;;;;;;27.10;3.40;;;5.40;99.90;;;;;;5080665;28;20550;-57
2022/01/31 08:56:05;;;;;;;22.48;3.30;;;5.40;99.90;;;;;;5081249;28;20035;-54
2022/01/31 08:58:33;;;;;;;22.58;3.00;;;5.40;99.90;;;;;;5080412;28;20057;-56
2022/01/31 09:01:04;;;;;;;24.02;3.40;;;5.40;99.90;;;;;;5082853;28;20066;-55
2022/01/31 09:03:55;;;;;;;23.00;2.88;;;5.40;99.90;;;;;;5080401;28;20546;-56
2022/01/31 09:06:26;;;;;;;15.88;2.15;;;5.40;99.90;;;;;;5081511;28;20035;-55
2022/01/31 09:08:52;;;;;;;18.67;2.30;;;5.50;99.90;;;;;;5081555;28;20036;-56
2022/01/31 09:11:18;;;;;;;12.02;1.58;;;5.50;99.90;;;;;;5081688;28;20567;-56
2022/01/31 09:13:44;;;;;;;9.07;1.70;;;5.50;99.90;;;;;;5080698;28;20131;-58
2022/01/31 09:16:10;;;;;;;15.70;1.90;;;5.40;99.90;;;;;;5082094;28;20079;-54
2022/01/31 09:18:36;;;;;;;15.52;1.65;;;5.60;99.90;;;;;;5081795;28;20082;-57
2022/01/31 09:21:03;;;;;;;11.30;1.40;;;5.50;99.90;;;;;;5081979;28;20036;-55
2022/01/31 09:23:29;;;;;;;13.10;1.40;;;5.60;99.90;;;;;;5081364;28;20429;-54
2022/01/31 09:25:56;;;;;;;9.70;1.10;;;5.60;99.90;;;;;;5079386;28;20044;-56
2022/01/31 09:28:22;;;;;;;10.85;1.48;;;5.60;99.90;;;;;;5081110;28;20044;-56
2022/01/31 09:30:51;;;;;;;7.82;1.15;;;5.60;99.90;;;;;;5081758;28;20080;-57
2022/01/31 09:33:17;;;;;;;8.30;1.13;;;5.70;99.90;;;;;;5082240;28;20451;-55
2022/01/31 09:35:43;;;;;;;11.15;1.10;;;5.70;99.90;;;;;;5081543;28;20114;-55
2022/01/31 09:38:12;;;;;;;6.57;1.20;;;5.80;99.90;;;;;;5082157;28;20024;-56
2022/01/31 09:40:38;;;;;;;10.60;1.40;;;5.80;99.90;;;;;;5080903;28;20449;-58
2022/01/31 09:51:10;;;;;;;12.85;2.03;;;6.00;99.90;;;;;;5080602;28;20071;-56
2022/01/31 09:53:44;;;;;;;16.52;2.10;;;6.10;99.90;;;;;;5080918;28;20028;-54
2022/01/31 09:56:13;;;;;;;10.27;1.98;;;6.20;99.90;;;;;;5081939;28;20380;-58
2022/01/31 09:58:41;;;;;;;13.90;1.90;;;6.20;99.90;;;;;;5077977;28;20471;-54
2022/01/31 10:01:14;;;;;;;17.25;2.22;;;6.20;99.90;;;;;;5080550;28;20066;-56
2022/01/31 10:03:59;;;;;;;14.77;1.90;;;6.20;99.90;;;;;;5080619;28;20484;-56
2022/01/31 10:06:31;;;;;;;16.30;2.55;;;6.20;99.90;;;;;;5080799;28;20032;-54
2022/01/31 10:09:05;;;;;;;12.90;1.88;;;6.20;99.90;;;;;;5078740;28;20040;-54
2022/01/31 10:11:40;;;;;;;12.07;1.88;;;6.30;99.90;;;;;;5079729;28;20048;-56
2022/01/31 10:17:28;;;;;;;20.90;2.10;;;6.40;99.90;;;;;;5080296;28;20062;-55
2022/01/31 10:20:00;;;;;;;21.85;3.05;;;6.50;99.90;;;;;;5080462;28;20048;-54
2022/01/31 10:22:28;;;;;;;19.13;2.08;;;6.40;99.90;;;;;;5085269;28;20056;-57
2022/01/31 10:24:56;;;;;;;17.58;2.17;;;6.40;99.90;;;;;;5085661;28;20491;-56
2022/01/31 10:27:27;;;;;;;14.18;2.05;;;6.40;99.90;;;;;;5085100;28;20047;-58
2022/01/31 10:30:13;;;;;;;12.77;2.50;;;6.40;99.90;;;;;;5084806;28;20422;-55
2022/01/31 10:32:45;;;;;;;13.25;1.80;;;6.50;99.90;;;;;;5083339;28;20029;-53
2022/01/31 10:35:32;;;;;;;14.50;2.17;;;6.50;99.90;;;;;;5084851;28;20040;-57
2022/01/31 10:38:08;;;;;;;12.25;1.50;;;6.50;99.90;;;;;;5085682;28;20161;-57
2022/01/31 10:56:23;;;;;;;10.98;1.45;;;6.20;99.90;;;;;;5084119;28;19923;-55
2022/01/31 10:58:58;;;;;;;7.40;1.13;;;6.00;99.90;;;;;;5083418;28;20040;-57
2022/01/31 11:01:25;;;;;;;11.15;1.60;;;6.00;99.90;;;;;;5084234;28;20047;-54
2022/01/31 11:03:52;;;;;;;10.27;1.48;;;5.90;99.90;;;;;;5083562;28;20053;-54
2022/01/31 11:06:19;;;;;;;6.93;1.00;;;5.90;99.90;;;;;;5085428;28;20410;-54
2022/01/31 11:08:46;;;;;;;9.63;1.10;;;5.80;99.90;;;;;;5084461;28;20100;-57
2022/01/31 11:11:12;;;;;;;9.38;1.08;;;5.80;99.90;;;;;;5083083;28;20059;-54
2022/01/31 11:13:39;;;;;;;5.40;1.20;;;5.80;99.90;;;;;;5084276;28;20048;-53
2022/01/31 11:16:06;;;;;;;4.95;0.82;;;5.80;99.90;;;;;;5085368;28;20379;-55
2022/01/31 11:18:34;;;;;;;7.68;0.80;;;5.80;99.90;;;;;;5085499;28;20059;-55
2022/01/31 11:21:06;;;;;;;5.93;0.75;;;5.80;99.90;;;;;;5067120;28;20055;-55
2022/01/31 11:23:38;;;;;;;5.97;0.88;;;5.80;99.90;;;;;;5085075;28;20147;-55
2022/01/31 11:26:06;;;;;;;5.80;0.70;;;5.80;99.90;;;;;;5083769;28;20055;-57
2022/01/31 11:28:34;;;;;;;7.80;1.13;;;5.80;99.90;;;;;;5084763;28;20301;-57
2022/01/31 11:31:01;;;;;;;5.57;0.80;;;5.80;99.90;;;;;;5084494;28;20040;-56
2022/01/31 11:33:28;;;;;;;8.98;1.02;;;5.80;99.90;;;;;;5080396;28;20038;-56
2022/01/31 11:35:54;;;;;;;8.73;1.17;;;5.80;99.90;;;;;;5076588;28;22219;-54
2022/01/31 11:38:21;;;;;;;12.10;1.75;;;5.80;99.90;;;;;;5081293;28;20055;-57
2022/01/31 11:40:47;;;;;;;15.52;2.45;;;5.80;99.90;;;;;;5079555;28;20122;-55
2022/01/31 11:43:15;;;;;;;15.55;2.20;;;5.90;99.90;;;;;;5061875;28;20709;-57
2022/01/31 11:45:42;;;;;;;24.65;3.20;;;5.90;99.90;;;;;;5085278;28;20024;-56
2022/01/31 11:48:29;;;;;;;23.73;3.25;;;6.00;99.90;;;;;;5089204;28;21307;-56
2022/01/31 11:51:00;;;;;;;32.58;4.15;;;6.00;99.90;;;;;;5086134;28;20336;-56
2022/01/31 11:53:34;;;;;;;39.22;4.85;;;6.10;99.90;;;;;;5089416;28;20071;-53
2022/01/31 11:56:08;;;;;;;45.92;5.18;;;6.20;99.90;;;;;;5089302;28;20033;-55
2022/01/31 11:58:42;;;;;;;37.63;4.75;;;6.30;99.90;;;;;;5090238;28;20047;-57
2022/01/31 12:01:08;;;;;;;44.55;5.50;;;6.30;99.90;;;;;;5085559;28;21272;-56
2022/01/31 12:03:35;;;;;;;39.45;5.95;;;6.30;99.90;;;;;;5082882;28;20044;-56
2022/01/31 12:06:08;;;;;;;43.20;6.57;;;6.40;99.90;;;;;;5082048;28;20044;-58
2022/01/31 12:08:38;;;;;;;43.75;5.90;;;6.40;99.90;;;;;;5083596;28;20044;-56
2022/01/31 12:11:15;;;;;;;46.80;6.03;;;6.40;99.90;;;;;;5086632;28;20052;-57
2022/01/31 12:13:52;;;;;;;47.10;5.63;;;6.50;99.90;;;;;;5079196;28;20084;-56
2022/01/31 12:22:47;;;;;;;40.15;5.93;;;6.60;99.90;;;;;;5072451;28;20040;-57
2022/01/31 12:25:33;;;;;;;40.10;5.50;;;6.60;99.90;;;;;;5083604;28;20047;-54
2022/01/31 12:28:36;;;;;;;45.83;5.60;;;6.60;99.90;;;;;;5083313;28;20531;-53
2022/01/31 12:31:29;;;;;;;45.00;5.43;;;6.60;99.90;;;;;;5089537;28;20042;-55
2022/01/31 12:33:55;;;;;;;37.35;5.25;;;6.70;99.90;;;;;;5083566;28;20072;-54
2022/01/31 12:36:36;;;;;;;35.63;5.03;;;6.70;99.90;;;;;;5079220;28;20098;-58
2022/01/31 12:39:04;;;;;;;32.05;4.65;;;6.70;99.90;;;;;;5083855;28;20476;-55
2022/01/31 12:41:32;;;;;;;29.45;4.43;;;6.90;99.90;;;;;;5067499;28;20127;-55
2022/01/31 12:44:25;;;;;;;29.25;4.25;;;6.80;99.90;;;;;;5090296;28;20039;-55
2022/01/31 12:46:51;;;;;;;23.48;3.63;;;7.00;99.90;;;;;;5089182;28;20043;-55
2022/01/31 12:49:18;;;;;;;24.67;3.20;;;7.30;99.90;;;;;;5072191;28;20105;-53
2022/01/31 12:52:01;;;;;;;22.45;2.92;;;7.30;99.90;;;;;;5091331;28;20119;-56
2022/01/31 12:54:27;;;;;;;18.58;3.40;;;7.40;99.90;;;;;;5073559;28;20657;-57
2022/01/31 12:56:53;;;;;;;16.90;2.65;;;7.40;99.90;;;;;;5092118;28;20040;-59
2022/01/31 12:59:19;;;;;;;19.20;2.78;;;7.40;99.90;;;;;;5092205;28;20040;-57
2022/01/31 13:01:48;;;;;;;17.40;2.47;;;7.40;99.90;;;;;;5092346;28;20116;-54
2022/01/31 13:04:26;;;;;;;14.15;3.05;;;7.40;99.90;;;;;;5073431;28;20075;-56
2022/01/31 13:06:59;;;;;;;12.43;2.85;;;7.40;99.90;;;;;;5091850;28;20459;-56
2022/01/31 13:09:27;;;;;;;22.20;2.63;;;7.40;99.90;;;;;;5091681;28;20071;-56
2022/01/31 13:11:56;;;;;;;21.52;2.60;;;7.40;99.90;;;;;;5090458;28;20410;-55
2022/01/31 13:14:29;;;;;;;18.75;2.13;;;7.40;99.90;;;;;;5073837;28;20032;-56
2022/01/31 13:17:07;;;;;;;20.33;2.47;;;7.50;99.90;;;;;;5091939;28;20032;-56
2022/01/31 13:19:36;;;;;;;22.33;3.30;;;7.60;99.90;;;;;;5092174;28;20140;-56
2022/01/31 13:22:07;;;;;;;22.65;2.70;;;7.60;99.90;;;;;;5091409;28;20070;-55
2022/01/31 13:24:37;;;;;;;22.00;2.90;;;7.60;99.90;;;;;;5090443;28;20043;-56
2022/01/31 13:27:05;;;;;;;21.55;3.60;;;7.50;99.90;;;;;;5091341;28;20039;-58
2022/01/31 13:30:01;;;;;;;28.02;3.70;;;7.50;99.90;;;;;;5085766;28;20050;-56
2022/01/31 13:32:33;;;;;;;33.78;5.50;;;7.30;99.90;;;;;;5064791;28;20040;-57